createdAt,value
2019-03-25T00:00:30.337Z,40.50
2019-03-25T00:00:57.517Z,40.70
2019-03-25T00:01:23.692Z,40.80
2019-03-25T00:01:48.725Z,40.30
2019-03-25T00:02:13.235Z,40.50
2019-03-25T00:02:38.185Z,41.80
2019-03-25T00:03:02.904Z,41.30
2019-03-25T00:03:27.866Z,40.50
2019-03-25T00:03:52.746Z,40.20
2019-03-25T00:04:17.335Z,40.70
2019-03-25T00:04:43.071Z,40.30
2019-03-25T00:05:07.967Z,40.90
2019-03-25T00:05:32.774Z,40.60
2019-03-25T00:05:57.588Z,40.90
2019-03-25T00:06:22.036Z,40.00
2019-03-25T00:06:46.936Z,40.40
2019-03-25T00:07:11.813Z,40.50
2019-03-25T00:07:36.619Z,40.50
2019-03-25T00:08:02.347Z,40.50
2019-03-25T00:08:26.801Z,40.40
2019-03-25T00:09:04.618Z,40.60
2019-03-25T00:09:17.916Z,41.20
2019-03-25T00:09:42.461Z,41.00
2019-03-25T00:10:07.336Z,41.70
2019-03-25T00:10:32.233Z,41.60
2019-03-25T00:10:56.741Z,40.50
2019-03-25T00:11:21.539Z,40.60
2019-03-25T00:11:47.419Z,40.00
2019-03-25T00:12:12.239Z,40.90
2019-03-25T00:12:37.059Z,41.00
2019-03-25T00:13:01.582Z,41.10
2019-03-25T00:13:26.379Z,40.60
2019-03-25T00:13:51.239Z,40.20
2019-03-25T00:14:16.015Z,40.90
2019-03-25T00:14:40.533Z,40.70
2019-03-25T00:15:06.545Z,40.60
2019-03-25T00:15:31.255Z,41.20
2019-03-25T00:15:56.560Z,40.70
2019-03-25T00:16:21.136Z,40.20
2019-03-25T00:16:46.809Z,40.50
2019-03-25T00:17:11.253Z,40.20
2019-03-25T00:17:36.145Z,41.10
2019-03-25T00:18:00.883Z,41.20
2019-03-25T00:18:25.682Z,42.20
2019-03-25T00:18:50.271Z,41.40
2019-03-25T00:19:14.820Z,40.80
2019-03-25T00:19:39.692Z,40.70
2019-03-25T00:20:05.583Z,40.50
2019-03-25T00:20:30.261Z,40.00
2019-03-25T00:20:54.941Z,40.90
2019-03-25T00:21:19.833Z,40.40
2019-03-25T00:21:44.569Z,40.90
2019-03-25T00:22:08.951Z,40.70
2019-03-25T00:22:33.679Z,41.10
2019-03-25T00:22:58.345Z,40.90
2019-03-25T00:23:22.789Z,41.00
2019-03-25T00:23:47.920Z,41.30
2019-03-25T00:24:12.381Z,41.00
2019-03-25T00:24:38.902Z,40.30
2019-03-25T00:25:03.193Z,40.70
2019-03-25T00:25:27.779Z,40.60
2019-03-25T00:25:52.529Z,40.60
2019-03-25T00:26:17.343Z,40.10
2019-03-25T00:26:42.113Z,40.70
2019-03-25T00:27:06.616Z,41.70
2019-03-25T00:27:31.151Z,40.80
2019-03-25T00:27:55.707Z,41.00
2019-03-25T00:28:20.522Z,41.00
2019-03-25T00:28:46.004Z,40.60
2019-03-25T00:29:10.466Z,40.60
2019-03-25T00:29:34.958Z,40.70
2019-03-25T00:29:59.401Z,40.20
2019-03-25T00:30:23.863Z,41.20
2019-03-25T00:30:48.447Z,41.20
2019-03-25T00:31:13.321Z,41.80
2019-03-25T00:31:37.799Z,41.20
2019-03-25T00:32:02.347Z,41.20
2019-03-25T00:32:27.069Z,41.20
2019-03-25T00:32:51.731Z,41.00
2019-03-25T00:33:16.321Z,41.40
2019-03-25T00:33:41.189Z,40.70
2019-03-25T00:34:05.713Z,41.40
2019-03-25T00:34:30.467Z,41.10
2019-03-25T00:34:54.905Z,41.40
2019-03-25T00:35:19.710Z,41.00
2019-03-25T00:35:44.519Z,41.00
2019-03-25T00:36:09.037Z,41.00
2019-03-25T00:36:33.771Z,40.90
2019-03-25T00:36:59.433Z,41.20
2019-03-25T00:37:23.979Z,41.70
2019-03-25T00:37:48.729Z,41.20
2019-03-25T00:38:13.538Z,41.00
2019-03-25T00:38:38.335Z,41.10
2019-03-25T00:39:03.920Z,41.20
2019-03-25T00:39:29.524Z,41.10
2019-03-25T00:39:54.267Z,41.20
2019-03-25T00:40:19.127Z,41.30
2019-03-25T00:40:43.569Z,41.20
2019-03-25T00:41:08.377Z,41.20
2019-03-25T00:41:33.113Z,41.30
2019-03-25T00:41:57.855Z,41.40
2019-03-25T00:42:22.667Z,41.00
2019-03-25T00:42:47.157Z,41.10
2019-03-25T00:43:11.891Z,42.40
2019-03-25T00:43:36.353Z,42.20
2019-03-25T00:44:01.155Z,42.10
2019-03-25T00:44:26.883Z,41.10
2019-03-25T00:44:51.699Z,41.10
2019-03-25T00:45:16.169Z,42.10
2019-03-25T00:45:40.693Z,41.10
2019-03-25T00:46:05.305Z,41.70
2019-03-25T00:46:30.045Z,42.30
2019-03-25T00:46:54.784Z,41.60
2019-03-25T00:47:19.590Z,41.20
2019-03-25T00:47:44.041Z,41.50
2019-03-25T00:48:08.616Z,41.70
2019-03-25T00:48:33.417Z,41.50
2019-03-25T00:48:57.929Z,41.10
2019-03-25T00:49:22.739Z,41.30
2019-03-25T00:49:47.542Z,42.00
2019-03-25T00:50:12.342Z,41.50
2019-03-25T00:50:36.866Z,41.50
2019-03-25T00:51:01.417Z,41.50
2019-03-25T00:51:26.287Z,41.30
2019-03-25T00:51:50.745Z,41.70
2019-03-25T00:52:15.205Z,42.30
2019-03-25T00:52:39.648Z,41.60
2019-03-25T00:53:04.455Z,42.30
2019-03-25T00:53:29.284Z,42.00
2019-03-25T00:53:54.156Z,42.10
2019-03-25T00:54:18.909Z,41.10
2019-03-25T00:54:49.852Z,41.30
2019-03-25T00:55:09.962Z,41.40
2019-03-25T00:55:34.477Z,41.00
2019-03-25T00:55:59.029Z,41.30
2019-03-25T00:56:23.829Z,41.60
2019-03-25T00:56:48.345Z,41.50
2019-03-25T00:57:13.100Z,41.20
2019-03-25T00:57:37.836Z,41.40
2019-03-25T00:58:02.286Z,41.30
2019-03-25T00:58:26.825Z,41.40
2019-03-25T00:58:51.616Z,41.80
2019-03-25T00:59:16.075Z,42.50
2019-03-25T00:59:40.873Z,42.50
2019-03-25T01:00:08.036Z,42.20
2019-03-25T01:00:32.901Z,41.50
2019-03-25T01:00:57.710Z,41.80
2019-03-25T01:01:22.520Z,41.30
2019-03-25T01:01:47.043Z,41.50
2019-03-25T01:02:11.924Z,40.90
2019-03-25T01:02:36.756Z,41.40
2019-03-25T01:03:01.556Z,41.50
2019-03-25T01:03:26.371Z,41.30
2019-03-25T01:03:50.933Z,41.00
2019-03-25T01:04:15.742Z,41.40
2019-03-25T01:04:40.474Z,42.00
2019-03-25T01:05:07.016Z,41.70
2019-03-25T01:05:31.777Z,41.80
2019-03-25T01:05:56.575Z,41.70
2019-03-25T01:06:21.384Z,41.50
2019-03-25T01:06:47.072Z,41.70
2019-03-25T01:07:11.556Z,41.70
2019-03-25T01:07:36.301Z,41.70
2019-03-25T01:08:01.099Z,41.70
2019-03-25T01:08:25.920Z,41.70
2019-03-25T01:08:50.434Z,41.20
2019-03-25T01:09:15.007Z,42.10
2019-03-25T01:09:39.810Z,41.90
2019-03-25T01:10:06.770Z,42.10
2019-03-25T01:10:31.495Z,41.90
2019-03-25T01:10:56.090Z,41.60
2019-03-25T01:11:20.826Z,42.00
2019-03-25T01:11:49.357Z,41.60
2019-03-25T01:12:12.032Z,42.10
2019-03-25T01:12:36.840Z,41.40
2019-03-25T01:13:01.732Z,42.30
2019-03-25T01:13:26.536Z,42.60
2019-03-25T01:13:50.994Z,42.20
2019-03-25T01:14:15.832Z,41.80
2019-03-25T01:14:40.648Z,41.50
2019-03-25T01:15:07.334Z,41.80
2019-03-25T01:15:32.101Z,42.90
2019-03-25T01:15:56.917Z,42.10
2019-03-25T01:16:21.766Z,42.00
2019-03-25T01:16:46.566Z,42.00
2019-03-25T01:17:11.224Z,41.90
2019-03-25T01:17:35.726Z,42.60
2019-03-25T01:18:00.459Z,41.50
2019-03-25T01:18:25.198Z,41.80
2019-03-25T01:18:49.708Z,42.20
2019-03-25T01:19:14.429Z,42.20
2019-03-25T01:19:39.139Z,41.80
2019-03-25T01:20:07.343Z,41.40
2019-03-25T01:20:32.128Z,42.30
2019-03-25T01:20:56.962Z,41.70
2019-03-25T01:21:21.486Z,42.00
2019-03-25T01:21:46.024Z,41.70
2019-03-25T01:22:10.464Z,41.60
2019-03-25T01:22:35.334Z,42.00
2019-03-25T01:23:00.082Z,41.20
2019-03-25T01:23:24.876Z,42.20
2019-03-25T01:23:49.379Z,42.20
2019-03-25T01:24:14.194Z,41.30
2019-03-25T01:24:39.182Z,42.50
2019-03-25T01:25:05.461Z,41.60
2019-03-25T01:25:30.144Z,41.80
2019-03-25T01:25:56.022Z,41.30
2019-03-25T01:26:20.818Z,41.60
2019-03-25T01:26:45.636Z,41.90
2019-03-25T01:27:10.572Z,42.80
2019-03-25T01:27:35.380Z,42.00
2019-03-25T01:27:59.832Z,41.70
2019-03-25T01:28:25.340Z,42.10
2019-03-25T01:28:49.786Z,41.90
2019-03-25T01:29:14.534Z,41.20
2019-03-25T01:29:39.286Z,41.40
2019-03-25T01:30:05.858Z,42.10
2019-03-25T01:30:30.590Z,41.80
2019-03-25T01:30:55.407Z,41.70
2019-03-25T01:31:20.276Z,41.70
2019-03-25T01:31:45.013Z,41.50
2019-03-25T01:32:09.530Z,41.80
2019-03-25T01:32:34.275Z,41.70
2019-03-25T01:32:59.002Z,41.60
2019-03-25T01:33:23.454Z,41.70
2019-03-25T01:33:47.990Z,41.70
2019-03-25T01:34:12.727Z,41.70
2019-03-25T01:34:37.462Z,41.50
2019-03-25T01:35:02.302Z,41.90
2019-03-25T01:35:26.786Z,41.70
2019-03-25T01:35:51.322Z,41.80
2019-03-25T01:36:16.066Z,41.70
2019-03-25T01:36:40.861Z,41.30
2019-03-25T01:37:05.614Z,41.60
2019-03-25T01:37:30.230Z,41.80
2019-03-25T01:37:54.970Z,41.70
2019-03-25T01:38:19.712Z,41.20
2019-03-25T01:38:44.472Z,41.60
2019-03-25T01:39:08.996Z,41.40
2019-03-25T01:39:33.467Z,41.30
2019-03-25T01:39:58.345Z,41.20
2019-03-25T01:40:22.836Z,41.00
2019-03-25T01:40:47.307Z,41.40
2019-03-25T01:41:11.822Z,41.30
2019-03-25T01:41:36.208Z,41.60
2019-03-25T01:42:00.670Z,41.50
2019-03-25T01:42:25.134Z,41.30
2019-03-25T01:42:49.652Z,41.20
2019-03-25T01:43:14.124Z,41.40
2019-03-25T01:43:38.864Z,41.40
2019-03-25T01:44:03.677Z,41.50
2019-03-25T01:44:28.207Z,41.50
2019-03-25T01:44:52.943Z,41.80
2019-03-25T01:45:17.406Z,41.50
2019-03-25T01:45:41.973Z,41.60
2019-03-25T01:46:06.848Z,41.20
2019-03-25T01:46:31.380Z,41.50
2019-03-25T01:46:56.118Z,41.40
2019-03-25T01:47:21.008Z,41.40
2019-03-25T01:47:45.804Z,41.50
2019-03-25T01:48:10.192Z,41.60
2019-03-25T01:48:34.656Z,41.70
2019-03-25T01:48:59.518Z,41.80
2019-03-25T01:49:24.216Z,41.90
2019-03-25T01:49:48.934Z,41.80
2019-03-25T01:50:13.795Z,41.80
2019-03-25T01:50:39.475Z,42.10
2019-03-25T01:51:04.018Z,42.50
2019-03-25T01:51:28.750Z,42.50
2019-03-25T01:51:53.492Z,42.60
2019-03-25T01:52:18.214Z,42.50
2019-03-25T01:52:42.880Z,42.70
2019-03-25T01:53:07.751Z,42.80
2019-03-25T01:53:32.474Z,42.70
2019-03-25T01:53:57.204Z,42.70
2019-03-25T01:54:21.643Z,43.00
2019-03-25T01:54:46.128Z,42.90
2019-03-25T01:55:13.702Z,42.90
2019-03-25T01:55:37.133Z,43.00
2019-03-25T01:56:02.922Z,43.10
2019-03-25T01:56:27.413Z,43.20
2019-03-25T01:56:52.213Z,43.20
2019-03-25T01:57:17.009Z,43.20
2019-03-25T01:57:41.664Z,43.20
2019-03-25T01:58:06.107Z,43.40
2019-03-25T01:58:30.827Z,43.40
2019-03-25T01:58:55.580Z,43.30
2019-03-25T01:59:20.306Z,43.40
2019-03-25T01:59:45.040Z,43.50
2019-03-25T02:00:10.407Z,43.50
2019-03-25T02:00:34.999Z,43.40
2019-03-25T02:00:59.873Z,43.40
2019-03-25T02:01:24.608Z,43.50
2019-03-25T02:01:49.437Z,43.70
2019-03-25T02:02:14.373Z,43.50
2019-03-25T02:02:38.972Z,43.40
2019-03-25T02:03:03.520Z,43.50
2019-03-25T02:03:28.259Z,43.30
2019-03-25T02:03:52.780Z,43.50
2019-03-25T02:04:17.579Z,43.50
2019-03-25T02:04:42.307Z,43.50
2019-03-25T02:05:07.573Z,43.50
2019-03-25T02:05:32.374Z,43.60
2019-03-25T02:05:57.184Z,43.60
2019-03-25T02:06:21.631Z,43.60
2019-03-25T02:06:46.099Z,43.60
2019-03-25T02:07:10.566Z,43.50
2019-03-25T02:07:35.385Z,43.60
2019-03-25T02:08:00.186Z,43.50
2019-03-25T02:08:25.968Z,43.60
2019-03-25T02:08:50.428Z,43.60
2019-03-25T02:09:14.889Z,43.70
2019-03-25T02:09:39.339Z,43.70
2019-03-25T02:10:06.624Z,43.50
2019-03-25T02:10:31.206Z,43.50
2019-03-25T02:10:55.958Z,43.70
2019-03-25T02:11:22.278Z,43.70
2019-03-25T02:11:47.088Z,43.60
2019-03-25T02:12:11.887Z,43.70
2019-03-25T02:12:36.709Z,43.70
2019-03-25T02:13:01.447Z,43.70
2019-03-25T02:13:26.870Z,43.70
2019-03-25T02:13:51.603Z,43.80
2019-03-25T02:14:16.406Z,43.80
2019-03-25T02:14:40.859Z,43.90
2019-03-25T02:15:06.227Z,43.90
2019-03-25T02:15:31.014Z,44.00
2019-03-25T02:15:55.803Z,44.10
2019-03-25T02:16:20.605Z,44.10
2019-03-25T02:16:45.277Z,44.10
2019-03-25T02:17:09.863Z,43.90
2019-03-25T02:17:34.660Z,44.10
2019-03-25T02:17:59.487Z,44.10
2019-03-25T02:18:24.237Z,44.30
2019-03-25T02:18:49.045Z,44.10
2019-03-25T02:19:13.485Z,44.20
2019-03-25T02:19:38.280Z,44.10
2019-03-25T02:20:03.859Z,44.10
2019-03-25T02:20:28.311Z,44.00
2019-03-25T02:20:53.043Z,44.00
2019-03-25T02:21:17.911Z,44.20
2019-03-25T02:21:43.292Z,43.90
2019-03-25T02:22:08.063Z,44.10
2019-03-25T02:22:32.997Z,44.00
2019-03-25T02:22:58.041Z,44.10
2019-03-25T02:23:22.919Z,44.00
2019-03-25T02:23:47.664Z,44.10
2019-03-25T02:24:12.230Z,44.10
2019-03-25T02:24:37.043Z,44.10
2019-03-25T02:25:03.391Z,44.00
2019-03-25T02:25:27.847Z,43.90
2019-03-25T02:25:52.675Z,44.00
2019-03-25T02:26:17.411Z,44.00
2019-03-25T02:26:42.141Z,44.00
2019-03-25T02:27:06.953Z,43.80
2019-03-25T02:27:31.541Z,43.90
2019-03-25T02:27:56.302Z,43.90
2019-03-25T02:28:21.111Z,43.70
2019-03-25T02:28:45.735Z,43.60
2019-03-25T02:29:10.477Z,43.60
2019-03-25T02:29:35.295Z,43.60
2019-03-25T02:29:59.827Z,43.60
2019-03-25T02:30:24.296Z,43.80
2019-03-25T02:30:49.376Z,43.60
2019-03-25T02:31:14.189Z,43.70
2019-03-25T02:31:38.629Z,43.90
2019-03-25T02:32:03.167Z,43.90
2019-03-25T02:32:27.919Z,43.60
2019-03-25T02:32:53.423Z,43.80
2019-03-25T02:33:18.235Z,43.70
2019-03-25T02:33:43.061Z,43.60
2019-03-25T02:34:08.572Z,43.60
2019-03-25T02:34:33.384Z,43.60
2019-03-25T02:34:57.914Z,43.70
2019-03-25T02:35:22.365Z,43.60
2019-03-25T02:35:46.832Z,43.70
2019-03-25T02:36:11.293Z,43.40
2019-03-25T02:36:35.767Z,43.20
2019-03-25T02:37:00.217Z,43.40
2019-03-25T02:37:24.767Z,43.50
2019-03-25T02:37:49.594Z,43.50
2019-03-25T02:38:14.123Z,43.40
2019-03-25T02:38:38.603Z,43.50
2019-03-25T02:39:05.174Z,43.30
2019-03-25T02:39:29.882Z,43.50
2019-03-25T02:39:54.602Z,43.60
2019-03-25T02:40:19.416Z,43.70
2019-03-25T02:40:43.933Z,43.50
2019-03-25T02:41:08.562Z,43.30
2019-03-25T02:41:33.363Z,43.60
2019-03-25T02:41:57.808Z,43.60
2019-03-25T02:42:22.270Z,43.60
2019-03-25T02:42:46.717Z,43.50
2019-03-25T02:43:11.509Z,43.40
2019-03-25T02:43:36.333Z,43.30
2019-03-25T02:44:01.058Z,43.40
2019-03-25T02:44:25.709Z,43.20
2019-03-25T02:44:50.471Z,43.30
2019-03-25T02:45:15.358Z,43.40
2019-03-25T02:45:40.155Z,43.40
2019-03-25T02:46:05.009Z,43.30
2019-03-25T02:46:29.454Z,43.50
2019-03-25T02:46:54.062Z,43.70
2019-03-25T02:47:18.805Z,43.20
2019-03-25T02:47:43.256Z,43.40
2019-03-25T02:48:08.138Z,43.40
2019-03-25T02:48:32.954Z,43.40
2019-03-25T02:48:57.689Z,43.20
2019-03-25T02:49:22.204Z,43.30
2019-03-25T02:49:46.683Z,43.40
2019-03-25T02:50:11.529Z,43.50
2019-03-25T02:50:35.965Z,43.50
2019-03-25T02:51:00.719Z,43.60
2019-03-25T02:51:25.490Z,43.50
2019-03-25T02:51:49.946Z,43.30
2019-03-25T02:52:14.761Z,43.40
2019-03-25T02:52:40.189Z,43.70
2019-03-25T02:53:04.659Z,43.40
2019-03-25T02:53:29.479Z,43.50
2019-03-25T02:53:54.215Z,43.80
2019-03-25T02:54:18.655Z,43.30
2019-03-25T02:54:43.410Z,43.20
2019-03-25T02:55:08.348Z,43.50
2019-03-25T02:55:41.410Z,43.50
2019-03-25T02:55:59.451Z,43.60
2019-03-25T02:56:24.180Z,43.50
2019-03-25T02:56:49.006Z,43.10
2019-03-25T02:57:13.520Z,43.20
2019-03-25T02:57:38.258Z,43.40
2019-03-25T02:58:02.999Z,43.20
2019-03-25T02:58:27.439Z,43.40
2019-03-25T02:58:51.993Z,43.70
2019-03-25T02:59:16.829Z,43.50
2019-03-25T02:59:41.302Z,43.60
2019-03-25T03:00:08.150Z,43.70
2019-03-25T03:00:37.251Z,43.20
2019-03-25T03:01:01.858Z,43.30
2019-03-25T03:01:26.675Z,43.60
2019-03-25T03:01:52.098Z,43.40
2019-03-25T03:02:16.840Z,43.40
2019-03-25T03:02:41.640Z,43.50
2019-03-25T03:03:07.529Z,43.30
2019-03-25T03:03:31.983Z,43.40
2019-03-25T03:03:56.735Z,43.50
2019-03-25T03:04:21.462Z,43.50
2019-03-25T03:04:45.925Z,43.30
2019-03-25T03:05:10.464Z,44.20
2019-03-25T03:05:35.729Z,43.30
2019-03-25T03:06:00.507Z,43.80
2019-03-25T03:06:25.240Z,43.50
2019-03-25T03:06:49.687Z,43.50
2019-03-25T03:07:14.432Z,43.50
2019-03-25T03:07:39.312Z,43.30
2019-03-25T03:08:04.265Z,43.50
2019-03-25T03:08:29.011Z,43.40
2019-03-25T03:08:53.606Z,43.60
2019-03-25T03:09:18.077Z,43.20
2019-03-25T03:09:42.832Z,43.40
2019-03-25T03:10:08.298Z,43.40
2019-03-25T03:10:33.197Z,43.40
2019-03-25T03:10:58.054Z,43.40
2019-03-25T03:11:22.846Z,43.30
2019-03-25T03:11:47.353Z,43.30
2019-03-25T03:12:12.093Z,43.20
2019-03-25T03:12:36.822Z,43.40
2019-03-25T03:13:01.572Z,43.10
2019-03-25T03:13:26.021Z,43.40
2019-03-25T03:13:50.836Z,43.30
2019-03-25T03:14:15.689Z,43.40
2019-03-25T03:14:40.418Z,43.40
2019-03-25T03:15:06.614Z,43.50
2019-03-25T03:15:31.479Z,43.40
2019-03-25T03:15:55.932Z,43.30
2019-03-25T03:16:20.730Z,43.00
2019-03-25T03:16:45.567Z,43.50
2019-03-25T03:17:10.367Z,43.20
2019-03-25T03:17:35.244Z,43.20
2019-03-25T03:17:59.768Z,43.30
2019-03-25T03:18:24.299Z,43.40
2019-03-25T03:18:49.041Z,43.50
2019-03-25T03:19:13.560Z,43.50
2019-03-25T03:19:38.371Z,43.50
2019-03-25T03:20:03.645Z,43.40
2019-03-25T03:20:28.526Z,43.40
2019-03-25T03:20:53.058Z,43.60
2019-03-25T03:21:17.432Z,43.40
2019-03-25T03:21:41.910Z,43.60
2019-03-25T03:22:06.471Z,43.40
2019-03-25T03:22:31.201Z,43.40
2019-03-25T03:22:55.946Z,43.70
2019-03-25T03:23:20.694Z,43.70
2019-03-25T03:23:45.138Z,43.50
2019-03-25T03:24:10.849Z,43.30
2019-03-25T03:24:35.581Z,43.10
2019-03-25T03:25:00.490Z,43.60
2019-03-25T03:25:25.202Z,43.30
2019-03-25T03:25:57.273Z,43.40
2019-03-25T03:26:16.533Z,43.40
2019-03-25T03:26:40.987Z,43.50
2019-03-25T03:27:05.604Z,43.60
2019-03-25T03:27:30.497Z,43.30
2019-03-25T03:27:54.904Z,43.30
2019-03-25T03:28:19.365Z,43.40
2019-03-25T03:28:43.850Z,43.30
2019-03-25T03:29:08.303Z,43.30
2019-03-25T03:29:32.749Z,43.40
2019-03-25T03:29:57.555Z,43.50
2019-03-25T03:30:22.379Z,43.40
2019-03-25T03:30:47.340Z,43.50
2019-03-25T03:31:13.127Z,43.30
2019-03-25T03:31:37.881Z,43.50
2019-03-25T03:32:02.677Z,43.40
2019-03-25T03:32:27.132Z,43.40
2019-03-25T03:32:51.982Z,43.40
2019-03-25T03:33:16.835Z,43.60
2019-03-25T03:33:41.296Z,43.20
2019-03-25T03:34:06.026Z,43.40
2019-03-25T03:34:30.906Z,43.30
2019-03-25T03:34:55.653Z,43.60
2019-03-25T03:35:20.288Z,43.30
2019-03-25T03:35:46.483Z,43.50
2019-03-25T03:36:11.517Z,43.70
2019-03-25T03:36:35.965Z,43.50
2019-03-25T03:37:00.772Z,43.40
2019-03-25T03:37:25.514Z,43.30
2019-03-25T03:37:49.979Z,43.30
2019-03-25T03:38:14.476Z,43.20
2019-03-25T03:38:39.228Z,43.40
2019-03-25T03:39:04.916Z,43.70
2019-03-25T03:39:29.595Z,43.40
2019-03-25T03:39:54.460Z,43.50
2019-03-25T03:40:19.349Z,43.30
2019-03-25T03:40:44.086Z,43.40
2019-03-25T03:41:08.592Z,43.40
2019-03-25T03:41:33.566Z,43.40
2019-03-25T03:41:58.360Z,43.40
2019-03-25T03:42:23.194Z,43.40
2019-03-25T03:42:47.934Z,43.30
2019-03-25T03:43:13.422Z,43.10
2019-03-25T03:43:38.104Z,43.20
2019-03-25T03:44:02.974Z,43.30
2019-03-25T03:44:27.851Z,43.40
2019-03-25T03:44:52.291Z,43.40
2019-03-25T03:45:16.844Z,43.70
2019-03-25T03:45:41.580Z,43.40
2019-03-25T03:46:06.458Z,43.10
2019-03-25T03:46:30.923Z,43.60
2019-03-25T03:46:55.727Z,43.30
2019-03-25T03:47:20.624Z,43.60
2019-03-25T03:47:45.370Z,43.60
2019-03-25T03:48:10.471Z,43.40
2019-03-25T03:48:35.073Z,43.30
2019-03-25T03:48:59.911Z,43.20
2019-03-25T03:49:24.563Z,43.50
2019-03-25T03:49:49.299Z,43.30
2019-03-25T03:50:16.822Z,43.40
2019-03-25T03:50:41.897Z,43.10
2019-03-25T03:51:06.504Z,43.10
2019-03-25T03:51:31.359Z,43.50
2019-03-25T03:51:56.537Z,43.20
2019-03-25T03:52:21.428Z,43.10
2019-03-25T03:52:46.157Z,43.30
2019-03-25T03:53:11.262Z,43.10
2019-03-25T03:53:36.435Z,43.50
2019-03-25T03:54:01.312Z,43.10
2019-03-25T03:54:26.469Z,43.30
2019-03-25T03:54:51.735Z,43.70
2019-03-25T03:55:16.266Z,43.30
2019-03-25T03:55:40.876Z,43.90
2019-03-25T03:56:12.604Z,43.30
2019-03-25T03:56:32.359Z,43.40
2019-03-25T03:56:57.267Z,43.50
2019-03-25T03:57:22.142Z,43.30
2019-03-25T03:57:47.877Z,43.10
2019-03-25T03:58:12.726Z,43.40
2019-03-25T03:58:38.311Z,43.50
2019-03-25T03:59:04.467Z,43.40
2019-03-25T03:59:29.503Z,43.10
2019-03-25T03:59:55.052Z,43.50
2019-03-25T04:00:30.930Z,43.70
2019-03-25T04:00:55.537Z,43.20
2019-03-25T04:01:20.291Z,43.10
2019-03-25T04:01:45.038Z,43.20
2019-03-25T04:02:09.847Z,43.20
2019-03-25T04:02:34.284Z,43.30
2019-03-25T04:02:59.460Z,43.20
2019-03-25T04:03:24.206Z,43.40
2019-03-25T04:03:48.928Z,43.30
2019-03-25T04:04:13.410Z,43.40
2019-03-25T04:04:38.228Z,43.50
2019-03-25T04:05:03.105Z,43.60
2019-03-25T04:05:27.965Z,43.50
2019-03-25T04:05:52.719Z,43.00
2019-03-25T04:06:17.164Z,43.30
2019-03-25T04:06:41.888Z,43.30
2019-03-25T04:07:06.772Z,43.40
2019-03-25T04:07:31.214Z,43.40
2019-03-25T04:07:56.065Z,43.30
2019-03-25T04:08:20.818Z,43.50
2019-03-25T04:08:45.670Z,43.20
2019-03-25T04:09:10.543Z,43.40
2019-03-25T04:09:35.099Z,43.60
2019-03-25T04:09:59.895Z,43.20
2019-03-25T04:10:24.646Z,43.30
2019-03-25T04:10:49.479Z,43.50
2019-03-25T04:11:14.341Z,43.20
2019-03-25T04:11:38.711Z,43.70
2019-03-25T04:12:03.686Z,43.40
2019-03-25T04:12:28.490Z,43.30
2019-03-25T04:12:53.248Z,43.70
2019-03-25T04:13:18.048Z,43.40
2019-03-25T04:13:42.777Z,43.50
2019-03-25T04:14:07.584Z,43.60
2019-03-25T04:14:32.205Z,43.50
2019-03-25T04:14:57.111Z,43.60
2019-03-25T04:15:32.094Z,43.50
2019-03-25T04:15:56.915Z,43.50
2019-03-25T04:16:21.410Z,43.50
2019-03-25T04:16:45.872Z,43.50
2019-03-25T04:17:10.733Z,43.50
2019-03-25T04:17:35.174Z,43.40
2019-03-25T04:18:00.156Z,43.40
2019-03-25T04:18:24.980Z,43.30
2019-03-25T04:18:49.717Z,43.20
2019-03-25T04:19:14.439Z,43.50
2019-03-25T04:19:38.882Z,43.70
2019-03-25T04:20:04.501Z,43.70
2019-03-25T04:20:29.110Z,43.50
2019-03-25T04:20:53.738Z,43.60
2019-03-25T04:21:18.463Z,43.50
2019-03-25T04:21:43.217Z,43.50
2019-03-25T04:22:07.743Z,43.50
2019-03-25T04:22:32.230Z,43.80
2019-03-25T04:22:56.746Z,43.50
2019-03-25T04:23:21.546Z,43.20
2019-03-25T04:23:46.591Z,43.50
2019-03-25T04:24:11.125Z,43.60
2019-03-25T04:24:35.885Z,43.30
2019-03-25T04:25:00.667Z,43.40
2019-03-25T04:25:25.309Z,43.70
2019-03-25T04:25:50.104Z,43.50
2019-03-25T04:26:27.684Z,43.60
2019-03-25T04:26:41.159Z,43.60
2019-03-25T04:27:05.904Z,43.50
2019-03-25T04:27:30.717Z,43.70
2019-03-25T04:27:55.244Z,43.50
2019-03-25T04:28:20.000Z,43.70
2019-03-25T04:28:44.814Z,43.60
2019-03-25T04:29:09.620Z,43.10
2019-03-25T04:29:34.071Z,43.30
2019-03-25T04:29:58.546Z,43.50
2019-03-25T04:30:23.131Z,43.60
2019-03-25T04:30:47.901Z,43.60
2019-03-25T04:31:12.725Z,43.70
2019-03-25T04:31:37.467Z,43.70
2019-03-25T04:32:02.209Z,43.60
2019-03-25T04:32:26.740Z,43.60
2019-03-25T04:32:51.533Z,43.80
2019-03-25T04:33:16.256Z,43.70
2019-03-25T04:33:41.010Z,43.80
2019-03-25T04:34:05.799Z,43.70
2019-03-25T04:34:30.327Z,44.00
2019-03-25T04:34:55.065Z,43.60
2019-03-25T04:35:19.518Z,43.90
2019-03-25T04:35:44.065Z,43.80
2019-03-25T04:36:08.841Z,43.80
2019-03-25T04:36:33.293Z,43.80
2019-03-25T04:36:58.041Z,44.00
2019-03-25T04:37:22.838Z,44.00
2019-03-25T04:37:47.379Z,43.90
2019-03-25T04:38:12.184Z,44.00
2019-03-25T04:38:36.937Z,43.80
2019-03-25T04:39:01.652Z,44.30
2019-03-25T04:39:26.171Z,44.00
2019-03-25T04:39:50.640Z,43.80
2019-03-25T04:40:15.525Z,43.90
2019-03-25T04:40:39.916Z,44.00
2019-03-25T04:41:04.786Z,43.90
2019-03-25T04:41:29.851Z,44.00
2019-03-25T04:41:54.731Z,43.70
2019-03-25T04:42:19.478Z,44.00
2019-03-25T04:42:44.350Z,44.10
2019-03-25T04:43:08.805Z,44.10
2019-03-25T04:43:33.547Z,43.80
2019-03-25T04:43:58.352Z,43.80
2019-03-25T04:44:23.091Z,43.80
2019-03-25T04:44:47.529Z,43.80
2019-03-25T04:45:12.408Z,44.00
2019-03-25T04:45:37.206Z,43.80
2019-03-25T04:46:01.955Z,44.20
2019-03-25T04:46:26.403Z,43.90
2019-03-25T04:46:51.209Z,43.90
2019-03-25T04:47:15.945Z,44.20
2019-03-25T04:47:40.707Z,43.80
2019-03-25T04:48:05.311Z,44.00
2019-03-25T04:48:30.109Z,43.80
2019-03-25T04:48:54.767Z,43.90
2019-03-25T04:49:19.525Z,44.00
2019-03-25T04:49:43.963Z,43.80
2019-03-25T04:50:08.843Z,43.80
2019-03-25T04:50:33.573Z,45.10
2019-03-25T04:50:58.376Z,43.80
2019-03-25T04:51:22.905Z,43.90
2019-03-25T04:51:47.457Z,43.80
2019-03-25T04:52:12.234Z,43.70
2019-03-25T04:52:36.761Z,43.70
2019-03-25T04:53:01.497Z,43.60
2019-03-25T04:53:26.321Z,43.60
2019-03-25T04:53:51.059Z,43.80
2019-03-25T04:54:15.568Z,44.00
2019-03-25T04:54:40.305Z,43.70
2019-03-25T04:55:07.197Z,44.00
2019-03-25T04:55:31.999Z,43.80
2019-03-25T04:55:56.437Z,44.00
2019-03-25T04:56:20.912Z,43.70
2019-03-25T04:56:45.353Z,44.00
2019-03-25T04:57:09.881Z,44.10
2019-03-25T04:57:35.335Z,44.00
2019-03-25T04:58:00.209Z,43.50
2019-03-25T04:58:24.751Z,43.80
2019-03-25T04:58:49.580Z,44.20
2019-03-25T04:59:14.102Z,44.10
2019-03-25T04:59:38.911Z,44.10
2019-03-25T05:00:04.900Z,43.90
2019-03-25T05:00:35.859Z,43.90
2019-03-25T05:01:00.457Z,44.20
2019-03-25T05:01:25.048Z,43.80
2019-03-25T05:01:49.488Z,43.80
2019-03-25T05:02:14.363Z,44.10
2019-03-25T05:02:39.272Z,43.90
2019-03-25T05:03:03.892Z,44.10
2019-03-25T05:03:28.392Z,44.00
2019-03-25T05:03:53.205Z,43.80
2019-03-25T05:04:17.943Z,44.00
2019-03-25T05:04:42.745Z,43.80
2019-03-25T05:05:08.651Z,44.20
2019-03-25T05:05:35.891Z,43.70
2019-03-25T05:05:59.942Z,43.90
2019-03-25T05:06:24.380Z,43.70
2019-03-25T05:06:48.846Z,44.00
2019-03-25T05:07:13.302Z,44.20
2019-03-25T05:07:37.913Z,43.80
2019-03-25T05:08:02.827Z,43.90
2019-03-25T05:08:27.566Z,43.80
2019-03-25T05:08:52.099Z,44.20
2019-03-25T05:09:16.961Z,44.20
2019-03-25T05:09:41.698Z,43.90
2019-03-25T05:10:07.565Z,43.90
2019-03-25T05:10:32.308Z,43.90
2019-03-25T05:10:56.753Z,44.20
2019-03-25T05:11:30.238Z,44.00
2019-03-25T05:11:47.719Z,44.20
2019-03-25T05:12:12.530Z,43.70
2019-03-25T05:12:37.321Z,44.00
2019-03-25T05:13:02.129Z,44.00
2019-03-25T05:13:26.610Z,44.10
2019-03-25T05:13:51.091Z,43.90
2019-03-25T05:14:15.592Z,43.70
2019-03-25T05:14:41.169Z,44.00
2019-03-25T05:15:07.485Z,44.10
2019-03-25T05:15:32.116Z,43.90
2019-03-25T05:15:57.912Z,44.10
2019-03-25T05:16:22.666Z,44.00
2019-03-25T05:16:47.671Z,44.10
2019-03-25T05:17:12.119Z,43.90
2019-03-25T05:17:36.844Z,44.10
2019-03-25T05:18:01.576Z,43.70
2019-03-25T05:18:25.982Z,44.00
2019-03-25T05:18:50.642Z,44.00
2019-03-25T05:19:15.390Z,43.90
2019-03-25T05:19:39.836Z,43.60
2019-03-25T05:20:06.419Z,43.80
2019-03-25T05:20:31.308Z,44.20